Ipuiuna, Brazil
Current Conditions -  °F | °C
As of 7:00 PM on Thursday 30 Oct 2014 (Local Time) from SBPC Reporting Station
Clear Clear  
Wind Chill: 73°   Ceiling: Unl
Heat Index: 73°   Visibility: 6mi
Dew Point: 57°   Wind: 0mph
Humidity: 57%   Direction: NA
Pressure: 29.97"   Gusts: NA
Location:  22.1°S, 46.19°W
Report Text: SBPC 302100Z 00000KT CAVOK 23/14 Q1015
Loading
Personal Weather Stations






























Interactive Weather Map
Tropical Storm Tracking
New forecast layout! Learn more

10-Day Weather Forecast

Advertisements
Track Severe Weather on mobile